createdAt,value
2022-10-07T00:01:07.121Z,2.10
2022-10-07T00:03:35.407Z,2.28
2022-10-07T00:06:08.791Z,1.80
2022-10-07T00:08:37.616Z,2.00
2022-10-07T00:11:10.857Z,2.17
2022-10-07T00:13:40.781Z,2.30
2022-10-07T00:16:13.956Z,1.92
2022-10-07T00:18:42.162Z,2.55
2022-10-07T00:21:15.555Z,2.10
2022-10-07T00:23:44.751Z,2.30
2022-10-07T00:26:16.051Z,2.15
2022-10-07T00:28:44.260Z,1.92
2022-10-07T00:31:15.481Z,1.95
2022-10-07T00:33:43.713Z,2.40
2022-10-07T00:36:19.652Z,2.90
2022-10-07T00:38:58.612Z,2.60
2022-10-07T00:41:33.212Z,2.40
2022-10-07T00:44:21.047Z,2.53
2022-10-07T00:46:48.609Z,2.33
2022-10-07T00:49:16.100Z,2.42
2022-10-07T00:51:43.902Z,2.72
2022-10-07T00:54:14.765Z,2.20
2022-10-07T00:56:43.412Z,2.30
2022-10-07T00:59:12.502Z,2.13
2022-10-07T01:01:42.346Z,2.58
2022-10-07T01:04:12.193Z,2.63
2022-10-07T01:06:40.962Z,3.08
2022-10-07T01:09:10.572Z,2.60
2022-10-07T01:11:45.732Z,2.58
2022-10-07T01:14:13.482Z,2.53
2022-10-07T01:16:54.716Z,2.50
2022-10-07T01:19:28.299Z,2.55
2022-10-07T01:22:01.143Z,2.65
2022-10-07T01:24:35.063Z,2.40
2022-10-07T01:27:07.743Z,2.30
2022-10-07T01:29:43.505Z,2.53
2022-10-07T01:32:22.423Z,2.60
2022-10-07T01:34:53.025Z,2.28
2022-10-07T01:37:23.033Z,2.05
2022-10-07T01:39:55.283Z,2.30
2022-10-07T01:42:23.376Z,2.35
2022-10-07T01:44:57.019Z,2.30
2022-10-07T01:47:26.413Z,2.17
2022-10-07T01:49:53.764Z,2.60
2022-10-07T01:52:51.944Z,2.40
2022-10-07T01:55:38.554Z,2.55
2022-10-07T01:58:26.363Z,2.90
2022-10-07T02:01:03.600Z,2.30
2022-10-07T02:04:05.525Z,2.35
2022-10-07T02:06:36.495Z,2.03
2022-10-07T02:09:11.975Z,3.15
2022-10-07T02:11:42.974Z,2.40
2022-10-07T02:14:23.454Z,2.33
2022-10-07T02:16:57.336Z,2.70
2022-10-07T02:19:45.313Z,2.63
2022-10-07T02:22:16.213Z,2.42
2022-10-07T02:24:46.104Z,2.53
2022-10-07T02:27:16.774Z,2.70
2022-10-07T02:29:50.264Z,3.80
2022-10-07T02:32:23.057Z,2.70
2022-10-07T02:34:56.642Z,2.70
2022-10-07T02:37:29.133Z,2.50
2022-10-07T02:39:58.034Z,2.53
2022-10-07T02:42:33.887Z,2.63
2022-10-07T02:45:24.560Z,2.45
2022-10-07T02:48:09.995Z,2.22
2022-10-07T02:50:42.544Z,2.53
2022-10-07T02:53:13.068Z,2.10
2022-10-07T02:55:43.294Z,2.20
2022-10-07T02:58:13.024Z,2.88
2022-10-07T03:00:53.264Z,2.35
2022-10-07T03:03:22.065Z,2.40
2022-10-07T03:06:02.075Z,2.17
2022-10-07T03:08:30.855Z,2.50
2022-10-07T03:10:58.865Z,2.28
2022-10-07T03:13:26.514Z,3.20
2022-10-07T03:15:59.642Z,1.98
2022-10-07T03:18:29.934Z,2.22
2022-10-07T03:21:30.155Z,2.10
2022-10-07T03:24:01.095Z,2.40
2022-10-07T03:26:31.734Z,2.40
2022-10-07T03:29:01.541Z,1.90
2022-10-07T03:31:30.440Z,2.70
2022-10-07T03:33:59.954Z,2.35
2022-10-07T03:36:28.425Z,2.50
2022-10-07T03:38:56.095Z,2.42
2022-10-07T03:41:24.892Z,2.45
2022-10-07T03:43:57.669Z,2.00
2022-10-07T03:46:26.400Z,2.05
2022-10-07T03:48:54.425Z,1.80
2022-10-07T03:51:22.121Z,1.85
2022-10-07T03:53:50.154Z,2.00
2022-10-07T03:56:17.625Z,2.00
2022-10-07T03:58:45.086Z,1.65
2022-10-07T04:01:18.096Z,1.90
2022-10-07T04:03:52.805Z,1.80
2022-10-07T04:06:20.476Z,2.28
2022-10-07T04:08:53.131Z,2.05
2022-10-07T04:11:20.696Z,2.35
2022-10-07T04:13:48.676Z,2.45
2022-10-07T04:16:18.815Z,2.22
2022-10-07T04:18:47.926Z,2.10
2022-10-07T04:21:15.855Z,2.00
2022-10-07T04:23:43.305Z,1.73
2022-10-07T04:26:14.025Z,1.80
2022-10-07T04:28:45.497Z,1.73
2022-10-07T04:31:17.616Z,1.80
2022-10-07T04:33:53.825Z,1.90
2022-10-07T04:36:27.417Z,1.80
2022-10-07T04:39:07.789Z,2.13
2022-10-07T04:41:37.758Z,2.20
2022-10-07T04:44:09.410Z,2.08
2022-10-07T04:46:43.718Z,2.50
2022-10-07T04:49:14.452Z,3.03
2022-10-07T04:51:41.865Z,3.20
2022-10-07T04:54:09.716Z,2.67
2022-10-07T04:56:56.556Z,2.20
2022-10-07T04:59:29.978Z,2.10
2022-10-07T05:01:58.737Z,2.67
2022-10-07T05:04:26.894Z,2.05
2022-10-07T05:06:55.548Z,2.92
2022-10-07T05:09:24.265Z,2.20
2022-10-07T05:11:57.618Z,1.90
2022-10-07T05:14:24.977Z,2.15
2022-10-07T05:16:52.834Z,2.45
2022-10-07T05:19:23.355Z,1.88
2022-10-07T05:21:50.765Z,2.58
2022-10-07T05:24:19.155Z,2.55
2022-10-07T05:26:48.146Z,1.92
2022-10-07T05:29:15.577Z,2.22
2022-10-07T05:31:46.647Z,2.10
2022-10-07T05:34:17.149Z,2.30
2022-10-07T05:36:44.522Z,2.20
2022-10-07T05:39:13.176Z,2.05
2022-10-07T05:41:53.176Z,1.90
2022-10-07T05:44:26.113Z,2.10
2022-10-07T05:46:56.544Z,2.38
2022-10-07T05:49:24.575Z,2.22
2022-10-07T05:51:52.366Z,2.00
2022-10-07T05:54:20.565Z,2.33
2022-10-07T05:56:48.336Z,1.63
2022-10-07T05:59:17.727Z,2.10
2022-10-07T06:01:46.414Z,2.10
2022-10-07T06:04:20.137Z,2.30
2022-10-07T06:06:49.423Z,2.28
2022-10-07T06:09:35.519Z,2.15
2022-10-07T06:12:29.036Z,2.85
2022-10-07T06:14:58.049Z,2.75
2022-10-07T06:17:25.819Z,2.47
2022-10-07T06:19:56.981Z,2.28
2022-10-07T06:22:24.527Z,2.35
2022-10-07T06:24:56.729Z,2.00
2022-10-07T06:27:25.292Z,2.03
2022-10-07T06:29:52.840Z,2.33
2022-10-07T06:32:20.518Z,1.92
2022-10-07T06:34:48.891Z,1.80
2022-10-07T06:37:16.710Z,2.20
2022-10-07T06:39:44.989Z,2.38
2022-10-07T06:42:12.830Z,2.22
2022-10-07T06:44:58.842Z,2.60
2022-10-07T06:47:26.449Z,2.30
2022-10-07T06:49:53.839Z,2.55
2022-10-07T06:52:21.350Z,2.95
2022-10-07T06:54:48.770Z,2.55
2022-10-07T06:57:43.908Z,2.60
2022-10-07T07:00:06.582Z,2.47
2022-10-07T07:02:36.424Z,2.50
2022-10-07T07:05:08.797Z,2.17
2022-10-07T07:07:38.474Z,1.98
2022-10-07T07:10:07.562Z,2.40
2022-10-07T07:12:38.060Z,2.33
2022-10-07T07:15:06.060Z,1.95
2022-10-07T07:17:33.960Z,2.40
2022-10-07T07:20:01.584Z,2.20
2022-10-07T07:22:31.007Z,2.33
2022-10-07T07:24:58.399Z,1.85
2022-10-07T07:27:26.298Z,2.40
2022-10-07T07:29:53.719Z,2.05
2022-10-07T07:32:21.429Z,2.30
2022-10-07T07:34:48.914Z,2.22
2022-10-07T07:37:20.909Z,2.15
2022-10-07T07:39:52.288Z,2.20
2022-10-07T07:42:19.788Z,1.80
2022-10-07T07:44:48.499Z,2.85
2022-10-07T07:47:17.817Z,2.42
2022-10-07T07:49:46.730Z,2.30
2022-10-07T07:52:21.419Z,2.00
2022-10-07T07:54:51.890Z,2.10
2022-10-07T07:57:19.849Z,2.35
2022-10-07T07:59:47.459Z,2.08
2022-10-07T08:02:17.212Z,2.50
2022-10-07T08:04:48.650Z,2.50
2022-10-07T08:07:16.858Z,2.28
2022-10-07T08:09:46.998Z,2.85
2022-10-07T08:12:15.109Z,2.90
2022-10-07T08:14:43.470Z,3.40
2022-10-07T08:17:12.589Z,2.50
2022-10-07T08:19:40.551Z,2.45
2022-10-07T08:22:09.081Z,2.55
2022-10-07T08:24:37.909Z,2.67
2022-10-07T08:27:05.651Z,2.25
2022-10-07T08:29:33.188Z,2.55
2022-10-07T08:32:00.768Z,2.35
2022-10-07T08:34:28.459Z,2.67
2022-10-07T08:36:56.468Z,2.30
2022-10-07T08:39:24.889Z,2.63
2022-10-07T08:42:04.458Z,2.22
2022-10-07T08:44:39.231Z,2.38
2022-10-07T08:47:25.194Z,2.80
2022-10-07T08:50:07.907Z,2.47
2022-10-07T08:52:39.318Z,2.72
2022-10-07T08:55:21.112Z,2.42
2022-10-07T08:58:08.833Z,2.88
2022-10-07T09:00:50.332Z,3.35
2022-10-07T09:03:22.777Z,2.97
2022-10-07T09:05:53.569Z,2.42
2022-10-07T09:08:34.488Z,2.67
2022-10-07T09:11:16.006Z,3.30
2022-10-07T09:13:50.949Z,2.90
2022-10-07T09:16:52.498Z,4.05
2022-10-07T09:19:48.749Z,2.33
2022-10-07T09:22:32.349Z,2.70
2022-10-07T09:25:23.759Z,3.03
2022-10-07T09:27:52.439Z,2.40
2022-10-07T09:30:21.456Z,2.80
2022-10-07T09:32:54.081Z,2.40
2022-10-07T09:35:24.848Z,3.03
2022-10-07T09:37:56.408Z,2.65
2022-10-07T09:41:03.819Z,3.03
2022-10-07T09:43:33.009Z,3.00
2022-10-07T09:46:01.684Z,3.50
2022-10-07T09:48:34.612Z,3.88
2022-10-07T09:51:17.018Z,5.00
2022-10-07T09:53:58.420Z,4.68
2022-10-07T09:56:54.660Z,7.72
2022-10-07T09:59:35.979Z,6.32
2022-10-07T10:02:21.521Z,8.63
2022-10-07T10:04:55.309Z,7.65
2022-10-07T10:07:34.252Z,8.48
2022-10-07T10:10:21.788Z,8.55
2022-10-07T10:12:53.721Z,10.43
2022-10-07T10:15:23.849Z,8.75
2022-10-07T10:17:51.519Z,8.13
2022-10-07T10:20:24.949Z,8.63
2022-10-07T10:26:04.910Z,8.25
2022-10-07T10:32:04.599Z,7.10
2022-10-07T10:38:25.968Z,6.15
2022-10-07T10:41:29.159Z,5.70
2022-10-07T10:44:20.251Z,6.03
2022-10-07T10:50:15.469Z,5.95
2022-10-07T10:53:24.719Z,6.50
2022-10-07T10:56:16.771Z,5.90
2022-10-07T10:59:15.570Z,5.80
2022-10-07T11:01:44.733Z,5.93
2022-10-07T11:04:17.090Z,5.32
2022-10-07T11:06:54.840Z,5.00
2022-10-07T11:09:45.329Z,4.82
2022-10-07T11:12:25.201Z,4.95
2022-10-07T11:14:59.290Z,4.65
2022-10-07T11:17:36.710Z,4.53
2022-10-07T11:20:25.649Z,4.38
2022-10-07T11:23:06.010Z,3.80
2022-10-07T11:25:36.380Z,4.22
2022-10-07T11:28:23.285Z,3.97
2022-10-07T11:31:17.775Z,3.67
2022-10-07T11:34:22.669Z,3.55
2022-10-07T11:37:24.842Z,2.97
2022-10-07T11:39:54.057Z,3.05
2022-10-07T11:42:28.260Z,2.95
2022-10-07T11:45:18.169Z,2.60
2022-10-07T11:48:05.969Z,2.83
2022-10-07T11:50:41.429Z,3.30
2022-10-07T11:53:18.200Z,3.42
2022-10-07T11:56:02.359Z,3.10
2022-10-07T11:58:33.500Z,2.85
2022-10-07T12:01:25.878Z,2.53
2022-10-07T12:04:15.615Z,2.72
2022-10-07T12:07:20.640Z,2.50
2022-10-07T12:10:03.511Z,2.95
2022-10-07T12:12:46.562Z,2.40
2022-10-07T12:15:43.753Z,2.38
2022-10-07T12:18:17.710Z,2.58
2022-10-07T12:20:51.159Z,2.10
2022-10-07T12:23:18.711Z,2.10
2022-10-07T12:25:50.002Z,2.05
2022-10-07T12:28:35.190Z,2.17
2022-10-07T12:31:27.635Z,1.90
2022-10-07T12:33:58.931Z,2.45
2022-10-07T12:36:28.320Z,2.20
2022-10-07T12:38:59.597Z,1.90
2022-10-07T12:41:40.561Z,1.80
2022-10-07T12:47:29.900Z,1.83
2022-10-07T12:50:02.702Z,2.00
2022-10-07T12:52:53.152Z,2.50
2022-10-07T12:55:48.320Z,1.83
2022-10-07T12:58:50.851Z,2.00
2022-10-07T13:01:32.792Z,1.95
2022-10-07T13:04:06.421Z,2.42
2022-10-07T13:06:55.670Z,2.47
2022-10-07T13:09:47.611Z,1.95
2022-10-07T13:12:36.010Z,2.25
2022-10-07T13:15:22.041Z,1.83
2022-10-07T13:18:03.123Z,2.10
2022-10-07T13:20:52.221Z,1.88
2022-10-07T13:23:26.209Z,2.05
2022-10-07T13:25:57.675Z,1.98
2022-10-07T13:28:46.563Z,1.90
2022-10-07T13:31:26.223Z,2.10
2022-10-07T13:33:55.210Z,2.08
2022-10-07T13:36:23.663Z,2.03
2022-10-07T13:38:54.471Z,1.98
2022-10-07T13:41:27.771Z,1.98
2022-10-07T13:46:32.680Z,2.00
2022-10-07T13:49:01.211Z,2.20
2022-10-07T13:51:38.131Z,2.20
2022-10-07T13:54:08.014Z,2.20
2022-10-07T13:56:42.544Z,2.10
2022-10-07T13:59:20.350Z,2.08
2022-10-07T14:01:53.396Z,2.13
2022-10-07T14:05:01.111Z,1.95
2022-10-07T14:07:29.301Z,2.10
2022-10-07T14:10:05.096Z,2.00
2022-10-07T14:12:42.858Z,2.10
2022-10-07T14:15:14.611Z,2.38
2022-10-07T14:17:47.690Z,2.30
2022-10-07T14:20:33.924Z,2.53
2022-10-07T14:23:05.251Z,2.10
2022-10-07T14:25:53.308Z,2.17
2022-10-07T14:28:23.663Z,2.30
2022-10-07T14:31:27.433Z,2.40
2022-10-07T14:34:27.990Z,2.28
2022-10-07T14:37:26.223Z,2.67
2022-10-07T14:39:56.920Z,2.58
2022-10-07T14:42:36.301Z,1.90
2022-10-07T14:45:08.189Z,2.10
2022-10-07T14:47:50.842Z,2.22
2022-10-07T14:50:30.112Z,1.90
2022-10-07T14:52:58.350Z,2.70
2022-10-07T14:56:02.660Z,2.50
2022-10-07T14:58:38.670Z,2.30
2022-10-07T15:01:10.380Z,2.30
2022-10-07T15:03:37.846Z,2.40
2022-10-07T15:06:07.761Z,2.13
2022-10-07T15:08:35.060Z,2.47
2022-10-07T15:11:03.020Z,2.10
2022-10-07T15:13:42.634Z,2.45
2022-10-07T15:16:16.182Z,2.30
2022-10-07T15:18:46.970Z,1.90
2022-10-07T15:21:17.179Z,1.75
2022-10-07T15:24:03.268Z,2.05
2022-10-07T15:26:47.241Z,2.22
2022-10-07T15:29:15.350Z,2.10
2022-10-07T15:31:43.361Z,2.10
2022-10-07T15:34:11.500Z,1.95
2022-10-07T15:36:38.690Z,2.10
2022-10-07T15:39:06.712Z,2.00
2022-10-07T15:41:37.890Z,2.00
2022-10-07T15:44:14.531Z,2.15
2022-10-07T15:46:42.582Z,1.73
2022-10-07T15:49:10.170Z,1.80
2022-10-07T15:51:37.550Z,1.90
2022-10-07T15:54:06.214Z,1.40
2022-10-07T15:56:34.430Z,1.67
2022-10-07T15:59:02.311Z,1.70
2022-10-07T16:01:32.222Z,1.83
2022-10-07T16:04:02.301Z,1.70
2022-10-07T16:06:32.820Z,1.90
2022-10-07T16:09:00.938Z,2.22
2022-10-07T16:11:30.110Z,1.70
2022-10-07T16:14:00.057Z,1.63
2022-10-07T16:19:11.710Z,1.40
2022-10-07T16:21:40.911Z,1.75
2022-10-07T16:24:22.713Z,1.63
2022-10-07T16:26:55.640Z,1.55
2022-10-07T16:29:42.201Z,1.70
2022-10-07T16:32:11.226Z,1.70
2022-10-07T16:34:43.523Z,1.63
2022-10-07T16:37:12.101Z,1.77
2022-10-07T16:39:40.431Z,1.45
2022-10-07T16:42:07.790Z,1.50
2022-10-07T16:44:35.550Z,1.50
2022-10-07T16:47:03.213Z,1.52
2022-10-07T16:49:30.631Z,1.90
2022-10-07T16:51:58.461Z,1.60
2022-10-07T16:54:26.154Z,1.80
2022-10-07T16:56:53.504Z,1.77
2022-10-07T16:59:24.299Z,1.55
2022-10-07T17:01:55.834Z,1.60
2022-10-07T17:04:24.967Z,1.85
2022-10-07T17:06:52.810Z,1.83
2022-10-07T17:09:22.130Z,1.70
2022-10-07T17:11:49.570Z,1.55
2022-10-07T17:14:19.380Z,1.85
2022-10-07T17:16:52.910Z,1.80
2022-10-07T17:22:06.261Z,2.00
2022-10-07T17:24:34.002Z,1.95
2022-10-07T17:27:01.250Z,1.65
2022-10-07T17:29:29.759Z,2.00
2022-10-07T17:34:41.918Z,1.90
2022-10-07T17:37:11.802Z,1.98
2022-10-07T17:39:39.120Z,1.70
2022-10-07T17:44:47.461Z,2.13
2022-10-07T17:47:20.850Z,1.80
2022-10-07T17:49:59.461Z,1.63
2022-10-07T17:52:27.693Z,1.75
2022-10-07T17:54:58.630Z,1.80
2022-10-07T17:57:26.082Z,1.98
2022-10-07T17:59:53.297Z,2.05
2022-10-07T18:02:20.675Z,1.88
2022-10-07T18:04:48.127Z,2.10
2022-10-07T18:07:17.661Z,2.10
2022-10-07T18:09:44.940Z,2.10
2022-10-07T18:12:30.680Z,1.80
2022-10-07T18:15:16.283Z,2.58
2022-10-07T18:17:44.725Z,2.17
2022-10-07T18:20:15.150Z,2.03
2022-10-07T18:22:44.571Z,2.28
2022-10-07T18:25:12.231Z,2.30
2022-10-07T18:30:21.261Z,2.00
2022-10-07T18:32:48.540Z,2.15
2022-10-07T18:35:15.870Z,2.35
2022-10-07T18:40:24.230Z,2.15
2022-10-07T18:42:51.562Z,2.40
2022-10-07T18:45:18.870Z,2.30
2022-10-07T18:50:30.181Z,2.60
2022-10-07T18:55:28.110Z,2.60
2022-10-07T18:57:55.340Z,2.00
2022-10-07T19:00:22.710Z,2.10
2022-10-07T19:02:51.342Z,2.60
2022-10-07T19:05:18.641Z,2.50
2022-10-07T19:07:46.447Z,2.67
2022-10-07T19:10:14.702Z,2.60
2022-10-07T19:13:20.519Z,2.33
2022-10-07T19:15:48.110Z,2.38
2022-10-07T19:18:15.348Z,2.50
2022-10-07T19:20:42.652Z,2.35
2022-10-07T19:23:11.720Z,2.85
2022-10-07T19:25:48.150Z,2.60
2022-10-07T19:28:15.606Z,2.35
2022-10-07T19:30:44.533Z,2.35
2022-10-07T19:33:11.820Z,2.90
2022-10-07T19:38:20.914Z,2.00
2022-10-07T19:40:48.211Z,2.47
2022-10-07T19:43:15.470Z,1.95
2022-10-07T19:45:43.111Z,2.30
2022-10-07T19:48:14.449Z,2.20
2022-10-07T19:50:42.121Z,2.05
2022-10-07T19:53:10.195Z,1.95
2022-10-07T19:55:37.640Z,2.08
2022-10-07T20:00:46.097Z,1.98
2022-10-07T20:03:13.421Z,1.75
2022-10-07T20:08:21.970Z,1.88
2022-10-07T20:10:49.210Z,2.10
2022-10-07T20:13:17.730Z,2.33
2022-10-07T20:15:45.070Z,2.10
2022-10-07T20:18:12.380Z,2.25
2022-10-07T20:20:40.184Z,2.10
2022-10-07T20:23:07.540Z,2.17
2022-10-07T20:25:37.451Z,2.47
2022-10-07T20:28:05.497Z,2.30
2022-10-07T20:30:35.130Z,3.30
2022-10-07T20:35:43.670Z,2.75
2022-10-07T20:38:10.873Z,2.33
2022-10-07T20:40:56.340Z,2.45
2022-10-07T20:43:23.589Z,2.50
2022-10-07T20:45:57.756Z,2.95
2022-10-07T20:48:28.151Z,2.95
2022-10-07T20:50:56.170Z,2.85
2022-10-07T20:53:23.511Z,2.55
2022-10-07T20:55:50.781Z,2.45
2022-10-07T20:58:18.135Z,2.58
2022-10-07T21:00:45.411Z,2.40
2022-10-07T21:03:12.830Z,2.58
2022-10-07T21:05:40.192Z,2.80
2022-10-07T21:08:07.560Z,2.67
2022-10-07T21:10:34.802Z,2.47
2022-10-07T21:13:02.294Z,2.47
2022-10-07T21:15:29.720Z,3.35
2022-10-07T21:20:38.360Z,2.38
2022-10-07T21:23:05.726Z,2.60
2022-10-07T21:25:34.113Z,2.78
2022-10-07T21:28:01.543Z,2.40
2022-10-07T21:30:29.602Z,2.30
2022-10-07T21:32:56.881Z,2.55
2022-10-07T21:35:24.231Z,2.40
2022-10-07T21:37:51.410Z,2.70
2022-10-07T21:40:18.701Z,2.50
2022-10-07T21:42:46.175Z,2.72
2022-10-07T21:45:13.760Z,2.40
2022-10-07T21:47:41.020Z,2.22
2022-10-07T21:50:09.581Z,2.63
2022-10-07T21:52:36.760Z,2.65
2022-10-07T21:55:04.360Z,2.88
2022-10-07T21:57:31.760Z,2.67
2022-10-07T21:59:59.230Z,2.78
2022-10-07T22:02:29.411Z,2.83
2022-10-07T22:05:00.033Z,3.10
2022-10-07T22:07:59.996Z,2.80
2022-10-07T22:10:29.916Z,3.45
2022-10-07T22:12:57.165Z,4.00
2022-10-07T22:15:24.546Z,3.70
2022-10-07T22:17:51.826Z,3.75
2022-10-07T22:20:19.846Z,3.60
2022-10-07T22:22:49.466Z,3.60
2022-10-07T22:25:17.115Z,3.33
2022-10-07T22:27:44.544Z,3.40
2022-10-07T22:30:12.327Z,3.90
2022-10-07T22:32:39.596Z,3.45
2022-10-07T22:35:25.745Z,2.92
2022-10-07T22:37:53.365Z,3.28
2022-10-07T22:40:20.706Z,3.10
2022-10-07T22:42:48.205Z,2.97
2022-10-07T22:45:17.265Z,2.97
2022-10-07T22:47:44.925Z,2.58
2022-10-07T22:50:12.195Z,2.50
2022-10-07T22:52:39.525Z,2.50
2022-10-07T22:55:08.647Z,2.85
2022-10-07T22:57:36.716Z,2.92
2022-10-07T23:00:07.545Z,2.63
2022-10-07T23:02:34.999Z,2.70
2022-10-07T23:05:02.564Z,2.60
2022-10-07T23:07:30.016Z,2.70
2022-10-07T23:09:57.296Z,2.97
2022-10-07T23:12:24.775Z,2.78
2022-10-07T23:14:52.045Z,2.90
2022-10-07T23:17:19.340Z,3.40
2022-10-07T23:19:46.607Z,3.85
2022-10-07T23:22:14.048Z,5.40
2022-10-07T23:24:41.267Z,5.20
2022-10-07T23:27:10.395Z,5.57
2022-10-07T23:29:37.697Z,5.90
2022-10-07T23:32:05.016Z,5.65
2022-10-07T23:34:32.275Z,5.38
2022-10-07T23:36:59.555Z,4.85
2022-10-07T23:39:27.243Z,5.03
2022-10-07T23:41:55.087Z,4.60
2022-10-07T23:44:23.316Z,4.82
2022-10-07T23:46:51.935Z,4.47
2022-10-07T23:49:19.205Z,3.83
2022-10-07T23:51:47.615Z,3.33
2022-10-07T23:54:15.114Z,2.92
2022-10-07T23:56:42.479Z,3.83
2022-10-07T23:59:09.815Z,3.17
